Time;durP1;ratioP1;P1;durP2;ratioP2;P2;SDS_P1;SDS_P2;PMS_P1;PMS_P2;Temp;Humidity;BMP_temperature;BMP_pressure;BME280_temperature;BME280_humidity;BME280_pressure;Samples;Min_cycle;Max_cycle;Signal;HPM_P1;HPM_P2
2022/12/08 00:01:06;;;;;;;11.80;9.18;;;;;;;21.62;43.81;94729.06;5035703;28;20040;-62
2022/12/08 00:03:32;;;;;;;11.23;9.10;;;;;;;21.64;43.73;94721.16;5035066;28;20051;-65
2022/12/08 00:11:26;;;;;;;12.52;9.25;;;;;;;21.57;43.90;94740.72;5037826;28;20186;-61
2022/12/08 00:13:51;;;;;;;10.25;8.35;;;;;;;21.50;43.70;94738.53;5022760;28;20443;-62
2022/12/08 00:16:17;;;;;;;11.43;9.35;;;;;;;21.50;43.86;94743.97;5037830;28;20569;-63
2022/12/08 00:18:42;;;;;;;10.18;8.23;;;;;;;21.54;43.94;94749.88;5038428;28;20048;-61
2022/12/08 00:21:08;;;;;;;11.68;8.90;;;;;;;21.50;43.92;94760.25;5020500;28;20759;-62
2022/12/08 00:23:33;;;;;;;11.23;8.70;;;;;;;21.51;43.83;94761.75;5038599;28;20059;-62
2022/12/08 00:26:05;;;;;;;11.10;8.90;;;;;;;21.48;44.00;94768.19;5020268;28;20052;-63
2022/12/08 00:28:31;;;;;;;11.43;8.90;;;;;;;21.35;43.68;94732.66;5004674;28;20101;-63
2022/12/08 00:30:57;;;;;;;12.10;9.05;;;;;;;21.47;43.69;94744.97;5020831;28;20427;-61
2022/12/08 00:33:22;;;;;;;12.02;9.25;;;;;;;20.62;43.76;94629.59;5020673;28;20060;-62
2022/12/08 00:35:48;;;;;;;13.13;9.15;;;;;;;21.36;43.81;94750.44;5038710;28;20044;-62
2022/12/08 00:38:14;;;;;;;11.68;9.35;;;;;;;21.08;43.81;94709.09;5009843;28;20543;-63
2022/12/08 00:40:44;;;;;;;12.52;9.40;;;;;;;21.40;43.91;94761.75;5038241;28;20037;-62
2022/12/08 00:43:09;;;;;;;11.52;9.02;;;;;;;21.45;43.99;94763.72;5009618;28;20037;-62
2022/12/08 00:45:35;;;;;;;11.45;9.45;;;;;;;21.43;43.89;94785.22;5020675;28;20056;-62
2022/12/08 00:48:00;;;;;;;11.07;9.07;;;;;;;21.28;44.14;94760.34;5038492;28;20056;-62
2022/12/08 00:50:25;;;;;;;11.27;9.20;;;;;;;21.40;44.20;94782.75;5025665;28;20060;-62
2022/12/08 00:52:51;;;;;;;12.10;9.70;;;;;;;21.42;43.92;94767.44;5038551;28;20068;-62
2022/12/08 00:55:16;;;;;;;11.43;9.15;;;;;;;21.40;43.99;94777.31;5038027;28;20055;-62
2022/12/08 00:57:42;;;;;;;13.50;10.00;;;;;;;21.40;43.95;94767.19;5020025;28;20056;-62
2022/12/08 01:00:08;;;;;;;12.23;9.60;;;;;;;21.19;43.86;94730.75;5020073;28;20097;-63
2022/12/08 01:02:34;;;;;;;10.32;9.15;;;;;;;21.12;43.95;94717.72;5020323;28;20117;-62
2022/12/08 01:04:59;;;;;;;13.30;9.38;;;;;;;21.35;43.95;94753.66;5038964;28;20183;-62
2022/12/08 01:07:24;;;;;;;12.65;9.45;;;;;;;21.38;43.83;94747.94;5039216;28;21629;-62
2022/12/08 01:09:51;;;;;;;12.20;9.98;;;;;;;20.75;43.81;94664.38;5037531;28;20774;-62
2022/12/08 01:12:17;;;;;;;11.85;9.68;;;;;;;21.34;43.98;94752.19;5025600;28;20064;-62
2022/12/08 01:14:42;;;;;;;12.98;9.85;;;;;;;21.17;44.02;94738.69;5038387;28;20129;-64
2022/12/08 01:17:08;;;;;;;12.82;9.45;;;;;;;21.18;44.03;94733.97;5038211;28;20140;-61
2022/12/08 01:19:33;;;;;;;13.35;10.18;;;;;;;20.50;43.74;94644.44;5038787;28;20068;-62
2022/12/08 01:21:58;;;;;;;12.48;10.13;;;;;;;19.98;43.66;94557.41;5019036;28;20845;-64
2022/12/08 01:24:24;;;;;;;12.85;9.90;;;;;;;21.05;43.96;94710.09;5016790;28;20063;-62
2022/12/08 01:26:49;;;;;;;12.65;9.93;;;;;;;21.34;44.00;94755.63;5017129;28;20143;-62
2022/12/08 01:29:15;;;;;;;12.70;10.00;;;;;;;21.33;43.95;94756.88;5034265;28;20492;-62
2022/12/08 01:31:40;;;;;;;14.52;10.40;;;;;;;21.33;44.03;94756.88;5016603;28;20044;-62
2022/12/08 01:34:06;;;;;;;11.57;9.35;;;;;;;21.19;43.78;94730.75;5036230;28;20079;-62
2022/12/08 01:36:32;;;;;;;13.07;10.60;;;;;;;21.29;43.94;94745.53;5016456;28;20056;-63
2022/12/08 01:38:59;;;;;;;11.40;9.85;;;;;;;21.26;43.60;94741.09;5034601;28;20056;-62
2022/12/08 01:41:29;;;;;;;13.00;9.80;;;;;;;21.28;43.89;94749.47;5022020;28;20055;-65
2022/12/08 01:44:01;;;;;;;12.65;10.00;;;;;;;21.28;43.90;94738.63;5034908;28;20068;-62
2022/12/08 01:46:28;;;;;;;12.98;10.05;;;;;;;19.99;43.89;94546.78;5035082;28;20024;-62
2022/12/08 01:49:00;;;;;;;13.07;10.00;;;;;;;21.26;43.77;94724.09;5015740;28;20627;-62
2022/12/08 01:51:25;;;;;;;12.70;10.52;;;;;;;20.96;44.10;94680.53;5000284;28;20913;-62
2022/12/08 01:53:51;;;;;;;12.80;9.82;;;;;;;21.26;43.98;94730.25;5034630;28;20090;-62
2022/12/08 01:56:25;;;;;;;12.52;10.05;;;;;;;21.11;43.80;94718.97;5015665;28;20169;-62
2022/12/08 01:58:50;;;;;;;13.70;10.38;;;;;;;21.25;43.98;94717.91;5000184;28;20258;-62
2022/12/08 02:01:16;;;;;;;12.57;9.88;;;;;;;21.14;43.93;94707.09;5017392;28;20098;-63
2022/12/08 02:03:54;;;;;;;14.70;10.85;;;;;;;21.10;44.02;94695.75;5034059;28;20777;-62
2022/12/08 02:06:19;;;;;;;13.77;10.18;;;;;;;21.24;43.99;94727.31;5016109;28;20124;-63
2022/12/08 02:08:45;;;;;;;12.93;10.13;;;;;;;21.16;43.70;94726.34;5033193;28;20552;-62
2022/12/08 02:11:11;;;;;;;13.48;10.45;;;;;;;20.47;43.88;94611.44;5016108;28;20098;-61
2022/12/08 02:13:36;;;;;;;13.70;10.13;;;;;;;20.45;43.99;94614.66;5032082;28;20044;-62
2022/12/08 02:16:29;;;;;;;13.50;10.27;;;;;;;21.19;43.99;94725.31;5034017;28;20056;-64
2022/12/08 02:19:07;;;;;;;12.02;10.00;;;;;;;20.53;43.82;94664.41;5034043;28;20159;-63
2022/12/08 02:21:38;;;;;;;12.32;10.15;;;;;;;21.16;44.02;94726.34;5034650;28;20038;-63
2022/12/08 02:24:07;;;;;;;11.65;9.38;;;;;;;21.06;43.84;94711.59;5033976;28;20056;-62
2022/12/08 02:26:36;;;;;;;12.32;10.00;;;;;;;21.15;44.02;94719.44;5016773;28;20048;-63
2022/12/08 02:29:01;;;;;;;11.82;9.70;;;;;;;21.15;43.91;94741.16;5036294;28;20079;-63
2022/12/08 02:31:35;;;;;;;13.25;10.40;;;;;;;21.15;44.05;94724.88;5035663;28;20108;-62
2022/12/08 02:34:14;;;;;;;13.10;10.48;;;;;;;20.85;43.91;94679.09;5014566;28;20084;-62
2022/12/08 02:36:47;;;;;;;13.63;10.57;;;;;;;21.15;44.07;94733.03;5017226;28;20055;-62
2022/12/08 02:39:16;;;;;;;14.55;10.75;;;;;;;21.14;43.99;94722.66;5016212;28;20052;-62
2022/12/08 02:41:50;;;;;;;14.07;10.80;;;;;;;21.12;43.98;94720.44;5033352;28;20056;-61
2022/12/08 02:44:22;;;;;;;12.82;10.05;;;;;;;20.92;43.99;94673.16;5015717;28;20134;-62
2022/12/08 02:46:56;;;;;;;13.20;10.55;;;;;;;21.07;44.10;94734.75;5005894;28;20032;-62
2022/12/08 02:49:27;;;;;;;13.18;10.32;;;;;;;21.07;43.98;94704.16;5017596;28;20071;-63
2022/12/08 02:52:11;;;;;;;12.68;10.18;;;;;;;20.92;43.99;94684.03;5017362;28;20589;-62
2022/12/08 02:54:40;;;;;;;12.98;10.23;;;;;;;21.07;43.79;94734.03;5032608;28;20517;-63
2022/12/08 02:57:10;;;;;;;12.40;10.68;;;;;;;20.95;44.20;94697.31;5016966;28;20053;-62
2022/12/08 03:00:06;;;;;;;14.25;10.48;;;;;;;21.05;43.91;94693.81;5035752;28;20201;-62
2022/12/08 03:03:00;;;;;;;11.55;10.05;;;;;;;21.10;43.98;94712.03;5013475;28;20041;-62
2022/12/08 03:05:42;;;;;;;12.38;10.30;;;;;;;20.97;43.90;94687.44;5035885;28;20599;-62
2022/12/08 03:08:13;;;;;;;13.02;10.30;;;;;;;21.00;44.04;94708.16;5018660;28;20086;-62
2022/12/08 03:10:45;;;;;;;12.57;10.70;;;;;;;21.04;44.16;94716.75;5019347;28;20037;-63
2022/12/08 03:13:16;;;;;;;13.13;10.50;;;;;;;21.05;43.95;94704.66;5018152;28;20205;-63
2022/12/08 03:15:42;;;;;;;12.52;10.50;;;;;;;20.86;44.04;94686.03;5034956;28;20072;-63
2022/12/08 03:18:10;;;;;;;12.77;10.57;;;;;;;20.87;44.13;94682.81;5016374;28;20345;-62
2022/12/08 03:20:35;;;;;;;12.55;10.65;;;;;;;20.16;43.88;94577.31;5033638;28;20182;-62
2022/12/08 03:23:01;;;;;;;13.13;10.55;;;;;;;21.01;43.50;94720.47;4998336;28;20063;-62
2022/12/08 03:25:29;;;;;;;12.00;10.10;;;;;;;20.78;43.98;94657.94;4977230;28;20118;-62
2022/12/08 03:27:55;;;;;;;12.02;9.90;;;;;;;20.85;44.03;94722.53;5015039;28;20044;-63
2022/12/08 03:30:20;;;;;;;14.75;11.10;;;;;;;21.01;44.05;94720.47;4971915;28;20059;-63
2022/12/08 03:33:08;;;;;;;11.55;10.30;;;;;;;20.98;44.05;94710.66;5033207;28;20044;-63
2022/12/08 03:35:34;;;;;;;12.77;10.27;;;;;;;20.80;43.97;94682.59;5015342;28;20068;-61
2022/12/08 03:38:05;;;;;;;12.25;10.48;;;;;;;20.99;44.06;94716.81;5014090;28;20148;-62
2022/12/08 03:40:31;;;;;;;13.52;10.80;;;;;;;19.57;43.97;94505.75;5034079;28;20040;-63
2022/12/08 03:42:56;;;;;;;13.63;10.38;;;;;;;20.99;43.99;94712.09;5013868;28;20748;-63
2022/12/08 03:45:22;;;;;;;13.45;10.23;;;;;;;20.96;44.34;94723.97;5033348;28;20072;-64
2022/12/08 03:47:47;;;;;;;13.75;10.15;;;;;;;20.91;43.83;94710.44;4998692;28;20076;-63
2022/12/08 03:50:13;;;;;;;13.70;10.77;;;;;;;20.84;43.91;94699.38;5031804;28;20528;-62
2022/12/08 03:52:38;;;;;;;12.00;9.90;;;;;;;20.79;43.92;94698.16;5014039;28;20078;-62
2022/12/08 03:55:04;;;;;;;12.55;9.88;;;;;;;20.48;43.88;94646.19;5015777;28;20029;-63
2022/12/08 03:57:29;;;;;;;13.40;9.98;;;;;;;19.19;43.91;94449.00;5032045;28;20048;-62
2022/12/08 03:59:55;;;;;;;11.93;9.88;;;;;;;20.96;44.13;94723.97;5031485;28;20149;-63
2022/12/08 04:02:20;;;;;;;12.60;10.13;;;;;;;20.98;43.78;94721.50;5014499;28;20054;-62
2022/12/08 04:04:46;;;;;;;12.30;10.25;;;;;;;20.96;43.96;94722.50;5031856;28;20040;-62
2022/12/08 04:07:11;;;;;;;11.93;9.98;;;;;;;20.96;43.85;94727.94;5030663;28;20032;-62
2022/12/08 04:09:37;;;;;;;13.25;10.30;;;;;;;20.12;43.98;94601.22;5027889;28;20157;-63
2022/12/08 04:12:03;;;;;;;11.68;9.45;;;;;;;20.97;44.17;94733.59;5031572;28;20050;-63
2022/12/08 04:14:29;;;;;;;11.63;9.20;;;;;;;20.97;44.01;94736.31;5026882;28;20045;-63
2022/12/08 04:16:54;;;;;;;11.68;9.50;;;;;;;20.77;44.09;94705.31;5030700;28;20072;-63
2022/12/08 04:19:20;;;;;;;12.18;9.70;;;;;;;20.76;44.05;94703.81;5032170;28;21452;-62
2022/12/08 04:21:45;;;;;;;13.40;10.60;;;;;;;20.96;43.87;94733.38;5032461;28;21641;-62
2022/12/08 04:24:10;;;;;;;12.32;10.10;;;;;;;20.17;44.04;94632.97;5014703;28;20071;-64
2022/12/08 04:26:36;;;;;;;12.10;9.60;;;;;;;20.70;43.87;94689.53;5014723;28;20051;-62
2022/12/08 04:29:01;;;;;;;12.65;9.65;;;;;;;20.89;44.10;94712.16;5032242;28;20102;-62
2022/12/08 04:31:27;;;;;;;12.93;9.95;;;;;;;20.95;44.14;94726.44;5032611;28;20452;-62
2022/12/08 04:33:52;;;;;;;13.38;10.00;;;;;;;20.95;43.93;94731.88;5014648;28;20181;-62
2022/12/08 04:36:18;;;;;;;13.40;9.95;;;;;;;20.76;43.75;94731.72;5031962;28;20762;-62
2022/12/08 04:38:43;;;;;;;13.23;10.30;;;;;;;20.93;43.69;94718.06;5013789;28;20075;-62
2022/12/08 04:41:09;;;;;;;12.23;9.63;;;;;;;20.88;43.85;94716.09;5012927;28;20141;-62
2022/12/08 04:43:35;;;;;;;12.93;10.07;;;;;;;20.93;44.09;94728.94;5014435;28;20040;-62
2022/12/08 04:46:01;;;;;;;13.60;9.95;;;;;;;20.91;44.14;94736.81;5033708;28;20060;-60
2022/12/08 04:48:26;;;;;;;12.52;10.05;;;;;;;20.85;43.91;94723.28;5021492;28;20045;-62
2022/12/08 04:50:52;;;;;;;11.27;9.88;;;;;;;20.73;43.90;94710.25;5032755;28;20091;-62
2022/12/08 04:53:18;;;;;;;11.27;9.32;;;;;;;18.51;43.71;94379.72;5014260;28;20156;-62
2022/12/08 04:55:44;;;;;;;11.60;9.80;;;;;;;20.75;44.12;94713.22;5032364;28;20032;-63
2022/12/08 04:58:13;;;;;;;11.43;9.40;;;;;;;21.05;43.83;94745.41;5037106;28;20037;-62
2022/12/08 05:00:39;;;;;;;13.98;9.70;;;;;;;21.02;43.79;94735.53;5035372;28;20058;-62
2022/12/08 05:03:05;;;;;;;12.90;10.02;;;;;;;21.09;43.95;94737.75;5036806;28;20045;-63
2022/12/08 05:05:30;;;;;;;12.00;9.55;;;;;;;20.86;43.79;94675.16;5038123;28;20048;-62
2022/12/08 05:07:56;;;;;;;11.30;8.65;;;;;;;21.37;43.47;94727.47;5038071;28;20048;-64
2022/12/08 05:10:21;;;;;;;12.73;9.90;;;;;;;21.51;43.10;94745.44;5040790;28;20037;-66
2022/12/08 05:12:47;;;;;;;13.05;9.40;;;;;;;21.57;42.94;94748.88;5038444;28;20513;-62
2022/12/08 05:15:12;;;;;;;13.02;9.88;;;;;;;21.51;42.84;94737.31;5036601;28;20555;-62
2022/12/08 05:17:38;;;;;;;12.52;9.15;;;;;;;20.85;42.62;94613.97;5018309;28;20052;-63
2022/12/08 05:20:04;;;;;;;11.45;9.43;;;;;;;21.78;42.60;94753.41;5040626;28;20048;-64
2022/12/08 05:22:30;;;;;;;12.00;9.30;;;;;;;21.79;42.48;94737.84;5032991;28;20040;-63
2022/12/08 05:24:55;;;;;;;10.20;8.93;;;;;;;21.92;42.30;94753.06;5038323;28;20724;-62
2022/12/08 05:27:21;;;;;;;10.80;8.80;;;;;;;22.20;42.08;94767.19;5020374;28;20056;-63
2022/12/08 05:29:47;;;;;;;10.88;9.18;;;;;;;22.12;42.19;94760.81;5019948;28;20559;-62
2022/12/08 05:32:12;;;;;;;10.48;8.20;;;;;;;22.26;41.73;94762.47;5037928;28;20086;-65
2022/12/08 05:34:38;;;;;;;10.68;8.95;;;;;;;21.78;41.70;94693.63;5018710;28;20508;-64
2022/12/08 05:37:03;;;;;;;10.52;8.65;;;;;;;22.19;41.98;94752.09;5017874;28;20075;-63
2022/12/08 05:39:29;;;;;;;11.23;8.88;;;;;;;22.60;40.82;94771.78;5035533;28;20137;-62
2022/12/08 05:41:54;;;;;;;10.90;8.82;;;;;;;22.52;40.96;94771.59;5035110;28;20049;-61
2022/12/08 05:44:19;;;;;;;10.55;8.52;;;;;;;22.42;40.96;94739.81;5037320;28;20060;-63
2022/12/08 05:46:45;;;;;;;9.90;8.43;;;;;;;21.90;41.41;94694.25;5037109;28;20151;-62
2022/12/08 05:49:10;;;;;;;10.65;8.38;;;;;;;21.75;41.27;94661.28;5019094;28;20538;-62
2022/12/08 05:51:36;;;;;;;9.90;8.32;;;;;;;22.50;41.12;94773.38;5035995;28;20122;-63
2022/12/08 05:54:02;;;;;;;10.27;8.20;;;;;;;22.78;40.66;94776.56;5037293;28;20121;-63
2022/12/08 05:56:27;;;;;;;10.80;8.70;;;;;;;22.78;40.26;94771.88;5017828;28;20292;-62
2022/12/08 05:58:53;;;;;;;11.93;8.63;;;;;;;22.77;40.86;94775.09;5036832;28;20049;-62
2022/12/08 06:01:29;;;;;;;10.45;8.52;;;;;;;22.75;40.84;94772.13;5035520;28;20120;-63
2022/12/08 06:03:55;;;;;;;11.15;8.85;;;;;;;22.82;40.43;94787.91;5017347;28;20046;-62
2022/12/08 06:06:21;;;;;;;9.27;7.90;;;;;;;22.77;40.73;94775.81;4994024;28;20179;-62
2022/12/08 06:08:46;;;;;;;8.73;7.75;;;;;;;22.91;40.60;94791.78;5023590;28;20118;-62
2022/12/08 06:11:26;;;;;;;11.80;8.60;;;;;;;22.88;40.50;94781.16;5016143;28;20464;-62
2022/12/08 06:13:51;;;;;;;10.45;8.13;;;;;;;22.03;40.18;94665.97;5035554;28;20056;-62
2022/12/08 06:16:17;;;;;;;9.65;7.88;;;;;;;23.05;40.06;94784.47;5037176;28;20319;-63
2022/12/08 06:18:43;;;;;;;9.23;7.95;;;;;;;23.42;39.60;94782.50;5019615;28;20045;-63
2022/12/08 06:21:09;;;;;;;10.63;7.75;;;;;;;23.62;39.73;94792.91;5019586;28;20044;-62
2022/12/08 06:23:35;;;;;;;9.20;7.78;;;;;;;22.67;40.02;94667.78;5038873;28;20519;-61
2022/12/08 06:26:05;;;;;;;9.77;7.60;;;;;;;23.42;39.99;94788.72;5037451;28;20049;-61
2022/12/08 06:28:30;;;;;;;9.60;7.68;;;;;;;22.95;39.98;94721.44;5037010;28;20039;-62
2022/12/08 06:30:56;;;;;;;9.60;7.72;;;;;;;23.48;39.87;94794.06;5034439;28;20420;-62
2022/12/08 06:33:22;;;;;;;9.60;7.30;;;;;;;23.68;39.77;94790.88;5016942;28;20067;-63
2022/12/08 06:35:47;;;;;;;9.00;7.28;;;;;;;23.45;40.17;94789.66;5016285;28;20701;-63
2022/12/08 06:38:12;;;;;;;9.07;7.75;;;;;;;23.48;39.81;94783.19;5016008;28;20053;-63
2022/12/08 06:40:38;;;;;;;8.80;7.15;;;;;;;23.44;40.06;94782.75;5015587;28;20050;-65
2022/12/08 06:43:03;;;;;;;9.32;7.65;;;;;;;23.44;39.93;94793.66;5015840;28;20115;-61
2022/12/08 06:45:29;;;;;;;7.88;6.57;;;;;;;23.65;39.46;94784.47;5034634;28;20513;-63
2022/12/08 06:47:54;;;;;;;9.65;7.57;;;;;;;23.55;39.38;94788.06;5035256;28;20190;-62
2022/12/08 06:50:20;;;;;;;10.80;7.57;;;;;;;23.53;39.87;94779.66;5034520;28;20048;-62
2022/12/08 06:52:45;;;;;;;8.73;7.20;;;;;;;23.61;39.79;94780.53;5015551;28;20041;-65
2022/12/08 06:55:11;;;;;;;9.20;7.07;;;;;;;23.19;39.95;94740.44;5015905;28;20040;-64
2022/12/08 06:57:36;;;;;;;9.95;7.82;;;;;;;23.49;39.91;94801.00;5032920;28;21407;-62
2022/12/08 07:00:03;;;;;;;10.80;7.70;;;;;;;23.81;39.73;94777.31;5033484;28;20041;-63
2022/12/08 07:02:29;;;;;;;8.70;7.15;;;;;;;23.93;39.51;94773.91;5033102;28;21617;-62
2022/12/08 07:04:54;;;;;;;10.35;7.43;;;;;;;23.96;38.84;94768.16;5034588;28;20079;-62
2022/12/08 07:07:20;;;;;;;10.38;8.23;;;;;;;24.22;38.85;94790.06;5006499;28;20037;-61
2022/12/08 07:09:46;;;;;;;10.52;7.10;;;;;;;24.21;39.04;94787.84;5014900;28;20088;-65
2022/12/08 07:12:11;;;;;;;8.57;6.72;;;;;;;24.42;38.77;94795.75;4998757;28;21855;-61
2022/12/08 07:14:36;;;;;;;9.77;7.45;;;;;;;24.21;39.50;94804.97;5012858;28;20145;-63
2022/12/08 07:17:02;;;;;;;8.95;7.32;;;;;;;24.18;39.01;94795.09;4994003;28;20049;-61
2022/12/08 07:19:27;;;;;;;10.52;7.65;;;;;;;24.32;38.59;94804.06;5012456;28;20727;-63
2022/12/08 07:21:53;;;;;;;11.32;7.50;;;;;;;24.28;38.66;94804.38;5013746;28;20549;-62
2022/12/08 07:24:18;;;;;;;8.60;6.93;;;;;;;24.24;38.94;94808.66;5028660;28;20049;-62
2022/12/08 07:26:44;;;;;;;9.20;6.90;;;;;;;24.00;39.83;94814.94;5014351;28;20226;-62
2022/12/08 07:29:09;;;;;;;9.98;7.78;;;;;;;23.85;40.10;94816.66;5013165;28;21691;-64
2022/12/08 07:31:35;;;;;;;8.50;7.07;;;;;;;24.42;38.73;94825.00;5013130;28;20103;-62
2022/12/08 07:34:01;;;;;;;8.88;7.85;;;;;;;24.61;38.73;94836.63;5013438;28;20140;-63
2022/12/08 07:36:26;;;;;;;9.45;7.45;;;;;;;24.58;38.58;94815.81;5014357;28;20045;-62
2022/12/08 07:38:52;;;;;;;9.52;7.88;;;;;;;24.80;38.42;94840.00;5014374;28;20078;-64
2022/12/08 07:41:19;;;;;;;10.07;7.75;;;;;;;24.83;38.41;94826.78;5011472;28;20557;-62
2022/12/08 07:43:45;;;;;;;8.82;7.07;;;;;;;24.68;38.60;94819.59;4992506;28;21310;-65
2022/12/08 07:46:15;;;;;;;9.15;7.40;;;;;;;24.75;38.53;94819.00;5015113;28;21239;-64
2022/12/08 07:48:42;;;;;;;9.57;7.45;;;;;;;24.84;38.54;94828.28;5013859;28;20033;-64
2022/12/08 07:51:07;;;;;;;8.63;7.05;;;;;;;24.65;38.38;94809.72;5014364;28;20061;-64
2022/12/08 07:53:33;;;;;;;8.38;6.75;;;;;;;24.64;38.83;94830.13;5014519;28;20049;-63
2022/12/08 07:55:59;;;;;;;8.57;6.65;;;;;;;24.69;38.58;94821.09;5012362;28;20140;-64
2022/12/08 07:58:24;;;;;;;10.30;7.38;;;;;;;24.56;38.82;94815.63;5016116;28;20037;-63
2022/12/08 08:00:51;;;;;;;8.43;7.22;;;;;;;24.56;38.56;94812.88;5014492;28;20048;-65
2022/12/08 08:03:16;;;;;;;8.02;7.00;;;;;;;24.62;38.78;94821.69;5015370;28;20049;-64
2022/12/08 08:05:43;;;;;;;9.00;7.20;;;;;;;24.42;38.59;94819.53;5015400;28;20479;-63
2022/12/08 08:08:09;;;;;;;8.40;6.78;;;;;;;24.42;39.04;94819.53;5017008;28;20968;-65
2022/12/08 08:10:34;;;;;;;8.35;7.00;;;;;;;24.45;38.89;94819.25;4995160;28;20091;-63
2022/12/08 08:12:59;;;;;;;8.57;6.68;;;;;;;24.46;38.88;94814.53;4995698;28;20083;-64
2022/12/08 08:15:26;;;;;;;9.18;7.60;;;;;;;24.36;38.66;94827.09;5029422;28;20083;-63
2022/12/08 08:17:51;;;;;;;8.65;7.25;;;;;;;23.51;38.97;94701.13;5015316;28;20045;-64
2022/12/08 08:20:18;;;;;;;10.38;7.38;;;;;;;23.81;38.79;94760.94;5014520;28;20040;-62
2022/12/08 08:22:47;;;;;;;8.63;7.35;;;;;;;23.93;39.03;94782.84;5015669;28;20062;-64
2022/12/08 08:25:13;;;;;;;9.23;7.57;;;;;;;24.06;39.02;94810.16;5001015;28;20098;-66
2022/12/08 08:27:38;;;;;;;8.60;7.03;;;;;;;24.09;39.51;94830.94;5014178;28;20048;-63
2022/12/08 08:30:06;;;;;;;9.20;7.05;;;;;;;23.88;39.26;94804.72;4994126;28;20619;-64
2022/12/08 08:32:32;;;;;;;9.07;7.25;;;;;;;22.26;39.37;94569.34;4988528;28;20190;-63
2022/12/08 08:34:58;;;;;;;8.63;7.22;;;;;;;23.89;39.47;94828.75;5036365;28;20131;-64
2022/12/08 08:37:23;;;;;;;8.60;6.70;;;;;;;23.17;39.48;94710.28;5036924;28;20036;-64
2022/12/08 08:39:49;;;;;;;8.70;7.10;;;;;;;23.88;39.63;94827.28;5035910;28;20134;-63
2022/12/08 08:42:14;;;;;;;7.85;6.90;;;;;;;23.32;40.04;94754.16;5017526;28;20056;-63
2022/12/08 08:44:40;;;;;;;7.95;6.82;;;;;;;23.95;39.62;94820.50;5008792;28;20048;-63
2022/12/08 08:47:05;;;;;;;8.60;7.10;;;;;;;23.84;39.99;94819.91;5020126;28;20758;-62
2022/12/08 08:49:31;;;;;;;9.55;7.60;;;;;;;23.65;39.97;94797.38;5035968;28;20036;-62
2022/12/08 08:51:57;;;;;;;8.50;6.85;;;;;;;23.76;39.94;94813.56;5007113;28;20071;-62
2022/12/08 08:54:22;;;;;;;8.55;7.07;;;;;;;23.18;39.54;94730.78;5036031;28;21233;-63
2022/12/08 08:56:48;;;;;;;9.35;7.32;;;;;;;23.77;40.24;94815.06;5036964;28;20978;-62
2022/12/08 08:59:13;;;;;;;8.85;7.50;;;;;;;23.63;40.26;94794.38;5016523;28;20044;-63
2022/12/08 09:01:39;;;;;;;8.98;6.95;;;;;;;23.67;40.08;94800.31;5034913;28;20044;-63
2022/12/08 09:04:04;;;;;;;9.15;7.00;;;;;;;22.96;39.99;94701.13;5007676;28;22146;-62
2022/12/08 09:06:30;;;;;;;9.85;7.60;;;;;;;23.52;39.94;94791.81;5000967;28;20056;-64
2022/12/08 09:08:56;;;;;;;8.88;7.15;;;;;;;22.72;40.29;94669.72;5019027;28;20049;-64
2022/12/08 09:11:22;;;;;;;8.55;6.70;;;;;;;23.62;40.52;94809.28;5018721;28;20102;-64
2022/12/08 09:13:48;;;;;;;9.32;6.97;;;;;;;23.54;40.62;94802.91;5021576;28;20049;-67
2022/12/08 09:16:14;;;;;;;8.77;7.07;;;;;;;23.53;40.36;94801.47;5018548;28;20354;-62
2022/12/08 09:18:39;;;;;;;9.10;7.38;;;;;;;23.39;40.68;94778.84;5037884;28;20796;-62
2022/12/08 09:21:07;;;;;;;8.65;6.68;;;;;;;23.57;40.17;94796.44;5019903;28;20036;-63
2022/12/08 09:23:33;;;;;;;8.50;6.72;;;;;;;23.56;40.00;94784.09;5020626;28;20052;-65
2022/12/08 09:25:58;;;;;;;9.50;7.28;;;;;;;22.71;40.75;94673.69;5038607;28;20115;-63
2022/12/08 09:28:24;;;;;;;8.75;7.15;;;;;;;23.33;40.18;94763.78;5039496;28;20789;-63
2022/12/08 09:30:50;;;;;;;10.07;7.78;;;;;;;23.44;40.51;94782.75;5035933;28;20069;-62
2022/12/08 09:33:15;;;;;;;8.90;7.00;;;;;;;23.51;40.46;94793.03;5008075;28;20060;-62
2022/12/08 09:35:41;;;;;;;9.45;7.38;;;;;;;23.49;40.65;94795.56;5018193;28;20048;-63
2022/12/08 09:38:06;;;;;;;8.85;7.25;;;;;;;23.28;40.50;94752.97;5036145;28;20103;-62
2022/12/08 09:40:34;;;;;;;8.48;7.57;;;;;;;23.47;40.56;94798.81;5036669;28;20036;-62
2022/12/08 09:43:30;;;;;;;10.38;7.70;;;;;;;23.44;40.36;94771.84;4990445;28;20085;-63
2022/12/08 09:45:55;;;;;;;9.63;7.45;;;;;;;23.31;40.84;94760.84;4986583;28;20059;-63
2022/12/08 09:48:30;;;;;;;9.50;7.28;;;;;;;22.69;40.29;94659.84;5015583;28;20093;-64
2022/12/08 09:50:57;;;;;;;8.15;7.00;;;;;;;22.84;40.07;94673.78;5016414;28;20928;-63
2022/12/08 09:53:49;;;;;;;8.43;7.07;;;;;;;23.56;40.35;94773.91;5034201;28;20136;-64
2022/12/08 09:56:18;;;;;;;10.25;7.43;;;;;;;23.59;40.28;94769.41;5014498;28;20167;-65
2022/12/08 09:58:51;;;;;;;8.75;7.20;;;;;;;23.56;40.65;94762.28;5000958;28;20123;-63
2022/12/08 10:01:18;;;;;;;9.30;7.47;;;;;;;23.53;40.97;94755.13;5035392;28;20040;-61
2022/12/08 10:03:44;;;;;;;10.07;7.60;;;;;;;23.37;40.88;94744.44;5006921;28;20064;-61
2022/12/08 10:06:40;;;;;;;10.02;7.53;;;;;;;23.50;40.87;94750.72;5032797;28;20048;-62
2022/12/08 10:09:39;;;;;;;9.93;7.22;;;;;;;23.57;40.75;94747.38;5035258;28;20183;-63
2022/12/08 10:12:04;;;;;;;7.40;6.60;;;;;;;23.63;40.47;94734.41;5016279;28;20061;-63
2022/12/08 10:14:42;;;;;;;8.45;7.07;;;;;;;23.77;40.71;94738.72;5033253;28;20133;-62
2022/12/08 10:17:33;;;;;;;8.10;6.65;;;;;;;23.69;40.45;94710.56;5015253;28;20063;-62
2022/12/08 10:20:01;;;;;;;8.10;6.78;;;;;;;23.84;39.78;94708.09;5034145;28;20064;-63
2022/12/08 10:22:31;;;;;;;8.73;6.45;;;;;;;24.01;39.93;94720.97;5017575;28;20033;-62
2022/12/08 10:25:00;;;;;;;;;;;;;;;23.57;39.76;94646.53;5024790;28;20049;-63
2022/12/08 10:27:25;;;;;;;10.50;6.70;;;;;;;24.28;39.38;94733.41;5034414;28;21356;-63
2022/12/08 10:29:51;;;;;;;8.73;7.05;;;;;;;24.22;39.49;94689.09;5016092;28;20052;-64
2022/12/08 10:32:21;;;;;;;9.80;7.20;;;;;;;24.11;39.06;94675.66;5006364;28;20056;-63
2022/12/08 10:35:05;;;;;;;8.73;7.03;;;;;;;24.28;39.35;94717.03;5034640;28;20050;-62
2022/12/08 10:37:30;;;;;;;8.35;6.63;;;;;;;24.52;38.79;94725.09;4942364;28;111198;-62
2022/12/08 10:40:13;;;;;;;8.60;7.15;;;;;;;24.43;39.12;94696.19;4930589;28;20101;-63
2022/12/08 10:42:40;;;;;;;8.88;7.05;;;;;;;24.68;38.94;94718.56;4973856;28;20046;-62
2022/12/08 10:45:09;;;;;;;8.65;7.13;;;;;;;24.75;38.94;94715.22;4975108;28;20062;-62
2022/12/08 10:47:36;;;;;;;9.40;7.32;;;;;;;24.59;38.66;94688.97;4989621;28;20134;-62
2022/12/08 10:50:19;;;;;;;8.38;6.63;;;;;;;24.79;38.52;94702.00;5006834;28;20057;-61
2022/12/08 10:52:45;;;;;;;7.32;6.47;;;;;;;24.16;38.61;94616.81;5010832;28;20044;-62
2022/12/08 10:55:18;;;;;;;9.13;6.70;;;;;;;24.90;38.62;94700.53;4999332;28;20037;-69
2022/12/08 10:57:44;;;;;;;9.60;7.30;;;;;;;24.85;38.65;94690.41;5009497;28;20187;-62
2022/12/08 11:00:14;;;;;;;7.68;6.78;;;;;;;24.82;38.26;94680.53;5008103;28;20061;-63
2022/12/08 11:02:52;;;;;;;;;;;;;;;25.09;38.82;94689.47;4989606;28;20063;-63
2022/12/08 11:05:17;;;;;;;8.32;6.22;;;;;;;25.05;38.92;94681.63;5008233;28;21482;-60
2022/12/08 11:07:48;;;;;;;7.82;6.68;;;;;;;25.05;38.88;94684.34;4990596;28;20051;-63
2022/12/08 11:10:16;;;;;;;7.60;6.22;;;;;;;25.06;38.52;94674.16;5008920;28;20037;-62
2022/12/08 11:12:42;;;;;;;7.93;6.75;;;;;;;25.29;38.37;94686.81;4998616;28;20189;-61
2022/12/08 11:15:12;;;;;;;8.55;6.30;;;;;;;25.09;38.79;94678.56;4991371;28;20057;-62
2022/12/08 11:17:38;;;;;;;7.55;6.28;;;;;;;25.11;38.57;94665.84;4982034;28;20455;-62
2022/12/08 11:20:19;;;;;;;7.88;6.82;;;;;;;25.28;38.42;94663.47;5007976;28;20541;-61
2022/12/08 11:22:45;;;;;;;7.53;6.47;;;;;;;25.41;38.16;94655.22;5008779;28;20048;-62
2022/12/08 11:25:19;;;;;;;7.80;6.47;;;;;;;25.45;38.14;94661.09;4991494;28;20159;-62
2022/12/08 11:27:46;;;;;;;7.88;6.57;;;;;;;25.35;38.06;94630.00;4998860;28;20037;-61
2022/12/08 11:30:20;;;;;;;7.72;6.80;;;;;;;25.51;38.12;94658.97;4997513;28;20794;-61
2022/12/08 11:32:50;;;;;;;7.32;6.10;;;;;;;25.37;38.05;94632.97;4981075;28;21676;-62
2022/12/08 11:35:27;;;;;;;7.90;6.60;;;;;;;25.48;38.33;94649.09;4969091;28;20456;-62